createdAt,value
2022-11-26T00:00:02.474Z,76.78888853420459
2022-11-26T00:15:02.103Z,76.67083866513103
2022-11-26T00:30:02.045Z,76.65574317930908
2022-11-26T00:45:01.651Z,76.8139047846072
2022-11-26T01:00:02.280Z,76.83801613875133
2022-11-26T01:15:01.915Z,76.94053908632722
2022-11-26T01:30:01.618Z,77.33172965632312
2022-11-26T01:45:02.244Z,77.49515338638551
2022-11-26T02:00:01.921Z,77.99175861252114
2022-11-26T02:15:01.578Z,78.75097072239704
2022-11-26T02:30:02.264Z,78.76749834405976
2022-11-26T02:45:01.877Z,79.16181909082749
2022-11-26T03:00:02.563Z,79.4693869014135
2022-11-26T03:15:02.159Z,79.34631227995169
2022-11-26T03:30:01.890Z,79.64017936740149
2022-11-26T03:45:02.547Z,79.94553144178985
2022-11-26T04:00:02.210Z,80.02301535182437
2022-11-26T04:15:01.831Z,79.96678051756672
2022-11-26T04:30:02.502Z,79.89116667729063
2022-11-26T04:45:02.108Z,80.277537357125
2022-11-26T05:00:01.743Z,80.15650525179835
2022-11-26T05:15:02.412Z,80.53470877097105
2022-11-26T05:30:01.592Z,80.4499170973389
2022-11-26T05:45:02.267Z,80.48997530078341
2022-11-26T06:00:01.911Z,80.29660417721745
2022-11-26T06:15:02.583Z,80.3342619110197
2022-11-26T06:30:02.217Z,80.2433060245151
2022-11-26T06:45:01.871Z,80.05478615491576
2022-11-26T07:00:02.562Z,80.09488820781014
2022-11-26T07:15:02.231Z,80.18218707425717
2022-11-26T07:30:01.925Z,80.23669907480304
2022-11-26T07:45:02.564Z,80.08609781752972
2022-11-26T08:00:02.204Z,80.03670966830576
2022-11-26T08:15:01.888Z,79.85694897378514
2022-11-26T08:30:02.592Z,80.16335666414203
2022-11-26T08:45:02.260Z,80.22842145781888
2022-11-26T09:00:01.900Z,80.42556926628156
2022-11-26T09:15:02.559Z,80.55128780362695
2022-11-26T09:30:02.253Z,80.68778689713268
2022-11-26T09:45:01.994Z,80.86051474647411
2022-11-26T10:00:01.656Z,80.79970092095557
2022-11-26T10:15:02.325Z,80.96521175340774
2022-11-26T10:30:01.956Z,81.12324892704935
2022-11-26T10:45:01.645Z,81.15275375083029
2022-11-26T11:00:02.315Z,81.62679560627203
2022-11-26T11:15:01.976Z,81.36068604999785
2022-11-26T11:30:01.688Z,81.38610464330505
2022-11-26T11:45:02.340Z,81.30498616068955
2022-11-26T12:00:01.988Z,81.45209723485301
2022-11-26T12:15:01.641Z,81.30405388367956
2022-11-26T12:30:02.269Z,81.36766306849569
2022-11-26T12:45:01.953Z,81.25254241594952
2022-11-26T13:00:01.649Z,81.22134369844323
2022-11-26T13:15:02.279Z,81.0796502522061
2022-11-26T13:30:01.945Z,80.98010534477298
2022-11-26T13:45:01.605Z,80.91777480647731
2022-11-26T14:00:02.242Z,80.74788382959233
2022-11-26T14:15:01.897Z,80.65212627606567
2022-11-26T14:30:01.598Z,80.54700818338817
2022-11-26T14:45:02.328Z,80.57846517191952
2022-11-26T15:00:02.002Z,80.60007479758268
2022-11-26T15:15:01.669Z,80.48123585358857
2022-11-26T15:30:02.296Z,80.31599606623435
2022-11-26T15:45:01.970Z,80.38898201084973
2022-11-26T16:00:01.637Z,80.26136918201685
2022-11-26T16:15:02.288Z,80.23192215111132
2022-11-26T16:30:01.915Z,80.19094141907013
2022-11-26T16:45:04.323Z,80.14698556716458
2022-11-26T17:00:02.191Z,80.13351013291289
2022-11-26T17:15:01.834Z,80.18369168967901
2022-11-26T17:30:02.697Z,80.05336784574777
2022-11-26T17:45:02.411Z,79.97094905483033
2022-11-26T18:00:02.046Z,79.761840212497
2022-11-26T18:15:01.684Z,79.75236475510772
2022-11-26T18:30:02.387Z,79.69773571207129
2022-11-26T18:45:02.044Z,79.61631616900108
2022-11-26T19:00:01.678Z,79.56891589005198
2022-11-26T19:15:02.315Z,79.42443424418103
2022-11-26T19:30:02.010Z,79.30814128605441
2022-11-26T19:45:01.693Z,79.26709633229875
2022-11-26T20:00:02.300Z,79.21589152422706
2022-11-26T20:15:01.984Z,79.08328797218022
2022-11-26T20:30:01.662Z,78.98337838607704
2022-11-26T20:45:02.324Z,78.72163439604647
2022-11-26T21:00:01.922Z,78.7255671698505
2022-11-26T21:15:02.556Z,78.62911694528877
2022-11-26T21:30:02.215Z,78.41267851850967
2022-11-26T21:45:01.953Z,78.43332170157937
2022-11-26T22:00:01.622Z,78.33390476411056
2022-11-26T22:15:02.260Z,78.28304457898739
2022-11-26T22:30:01.895Z,78.11988361269114
2022-11-26T22:45:02.581Z,77.98798435916304
2022-11-26T23:00:02.351Z,77.78268069768174
2022-11-26T23:15:02.026Z,77.83221845314799
2022-11-26T23:30:01.684Z,77.81287818029706
2022-11-26T23:45:02.338Z,77.78929271769736
